Bradninch, United Kingdom
Current Conditions -  °F | °C
As of 12:20 AM on Tuesday 25 Nov 2014 (Local Time) from EGTE Reporting Station
Clear Clear  
Wind Chill: 32°   Ceiling: Unl
Heat Index: 32°   Visibility: 6mi
Dew Point: 30°   Wind: 2mph
Humidity: 93%   Direction: 10°N
Pressure: 30.3"   Gusts: NA
Location:  50.83°N, 3.42°W
Report Text: EGTE 250020Z 01002KT CAVOK M00/M01 Q1026
Loading
Personal Weather Stations






























Interactive Weather Map New forecast layout! Learn more

10-Day Weather Forecast

Advertisements
Track Severe Weather on mobile